Time;durP1;ratioP1;P1;durP2;ratioP2;P2;SDS_P1;SDS_P2;PMS_P1;PMS_P2;Temp;Humidity;BMP_temperature;BMP_pressure;BME280_temperature;BME280_humidity;BME280_pressure;Samples;Min_cycle;Max_cycle;Signal;HPM_P1;HPM_P2
2024/02/18 00:02:03;;;;;;;0.20;0.20;;;6.90;99.90;;;;;;5082970;28;20051;-84
2024/02/18 00:04:31;;;;;;;0.10;0.10;;;6.80;99.90;;;;;;5081063;28;20020;-84
2024/02/18 00:06:57;;;;;;;0.10;0.10;;;6.70;99.90;;;;;;5082760;28;20028;-84
2024/02/18 00:09:22;;;;;;;0.10;0.10;;;6.70;99.90;;;;;;5086686;28;20038;-84
2024/02/18 00:11:48;;;;;;;1.27;1.17;;;6.70;99.90;;;;;;5086642;28;20073;-84
2024/02/18 00:14:14;;;;;;;0.10;0.10;;;6.70;99.90;;;;;;5088995;28;20623;-84
2024/02/18 00:16:39;;;;;;;0.10;0.10;;;6.80;99.90;;;;;;5082296;28;20066;-84
2024/02/18 00:19:05;;;;;;;0.10;0.10;;;6.70;99.90;;;;;;5079879;28;20110;-84
2024/02/18 00:21:31;;;;;;;0.10;0.10;;;6.70;99.90;;;;;;5080011;28;20280;-84
2024/02/18 00:23:56;;;;;;;0.10;0.10;;;6.60;99.90;;;;;;5083407;28;20028;-83
2024/02/18 00:26:22;;;;;;;0.10;0.10;;;6.60;99.90;;;;;;5084191;28;20034;-84
2024/02/18 00:28:48;;;;;;;0.10;0.10;;;6.60;99.90;;;;;;5083580;28;20028;-83
2024/02/18 00:31:14;;;;;;;0.17;0.17;;;6.60;99.90;;;;;;5083895;28;20052;-83
2024/02/18 00:33:39;;;;;;;0.10;0.10;;;6.50;99.90;;;;;;5085012;28;20032;-82
2024/02/18 00:36:06;;;;;;;0.10;0.10;;;6.60;99.90;;;;;;5084390;28;20040;-82
2024/02/18 00:38:31;;;;;;;0.10;0.10;;;6.60;99.90;;;;;;5077384;28;20062;-82
2024/02/18 00:40:58;;;;;;;0.10;0.10;;;6.60;99.90;;;;;;5086046;28;20059;-82
2024/02/18 00:43:24;;;;;;;0.20;0.20;;;6.40;99.90;;;;;;5084028;28;20039;-82
2024/02/18 00:45:49;;;;;;;0.10;0.10;;;6.50;99.90;;;;;;5083260;28;20036;-83
2024/02/18 00:48:16;;;;;;;0.10;0.10;;;6.50;99.90;;;;;;5076349;28;20051;-83
2024/02/18 00:50:42;;;;;;;0.10;0.10;;;6.40;99.90;;;;;;5085192;28;20031;-83
2024/02/18 00:53:08;;;;;;;0.10;0.10;;;6.50;99.90;;;;;;5085439;28;20090;-82
2024/02/18 00:55:33;;;;;;;0.10;0.10;;;6.40;99.90;;;;;;5085928;28;20075;-82
2024/02/18 00:57:59;;;;;;;0.10;0.10;;;6.30;99.90;;;;;;5088825;28;20115;-81
2024/02/18 01:00:25;;;;;;;0.10;0.10;;;6.20;99.90;;;;;;5081207;28;20131;-81
2024/02/18 01:02:50;;;;;;;0.10;0.10;;;6.20;99.90;;;;;;5075052;28;20115;-81
2024/02/18 01:05:16;;;;;;;0.38;0.38;;;6.20;99.90;;;;;;5083621;28;20020;-81
2024/02/18 01:07:41;;;;;;;0.10;0.10;;;6.20;99.90;;;;;;5085085;28;20039;-81
2024/02/18 01:10:09;;;;;;;0.10;0.10;;;6.10;99.90;;;;;;5087850;28;20023;-81
2024/02/18 01:12:36;;;;;;;0.10;0.10;;;6.20;99.90;;;;;;5080445;28;20062;-80
2024/02/18 01:15:01;;;;;;;;;;;6.20;99.90;;;;;;5093744;28;20035;-80
2024/02/18 01:17:28;;;;;;;0.10;0.10;;;6.10;99.90;;;;;;5087826;28;19918;-82
2024/02/18 01:19:57;;;;;;;0.38;0.38;;;6.10;99.90;;;;;;5088799;28;20028;-81
2024/02/18 01:22:24;;;;;;;0.10;0.10;;;6.10;99.90;;;;;;5086324;28;20043;-81
2024/02/18 01:24:50;;;;;;;0.10;0.10;;;5.90;99.90;;;;;;5097703;28;20741;-81
2024/02/18 01:27:15;;;;;;;0.10;0.10;;;5.90;99.90;;;;;;5083489;28;20112;-81
2024/02/18 01:29:41;;;;;;;0.10;0.10;;;5.90;99.90;;;;;;5084532;28;20651;-82
2024/02/18 01:32:07;;;;;;;0.10;0.10;;;5.90;99.90;;;;;;5091127;28;20035;-81
2024/02/18 01:34:33;;;;;;;0.28;0.28;;;5.90;99.90;;;;;;5089199;28;20622;-81
2024/02/18 01:36:58;;;;;;;0.10;0.10;;;5.90;99.90;;;;;;5089452;28;20408;-80
2024/02/18 01:39:25;;;;;;;0.40;0.40;;;5.80;99.90;;;;;;5081144;28;20523;-80
2024/02/18 01:41:51;;;;;;;;;;;5.80;99.90;;;;;;5084380;28;20039;-81
2024/02/18 01:44:17;;;;;;;0.10;0.10;;;5.90;99.90;;;;;;5089274;28;20414;-81
2024/02/18 01:46:43;;;;;;;0.10;0.10;;;5.90;99.90;;;;;;5081864;28;20026;-82
2024/02/18 01:49:09;;;;;;;0.10;0.10;;;6.00;99.90;;;;;;5086075;28;20034;-81
2024/02/18 01:51:35;;;;;;;0.10;0.10;;;6.00;99.90;;;;;;5090413;28;20039;-81
2024/02/18 01:54:03;;;;;;;0.10;0.10;;;6.00;99.90;;;;;;5087012;28;20032;-81
2024/02/18 01:56:29;;;;;;;0.10;0.10;;;5.90;99.90;;;;;;5083923;28;20040;-81
2024/02/18 01:58:54;;;;;;;0.10;0.10;;;5.90;99.90;;;;;;5090337;28;20662;-81
2024/02/18 02:01:20;;;;;;;13.98;0.88;;;5.90;99.90;;;;;;5083579;28;20036;-82
2024/02/18 02:03:46;;;;;;;0.10;0.10;;;5.80;99.90;;;;;;5086410;28;20126;-83
2024/02/18 02:06:14;;;;;;;0.10;0.10;;;5.80;99.90;;;;;;5081173;28;20111;-82
2024/02/18 02:08:40;;;;;;;0.10;0.10;;;5.80;99.90;;;;;;5087471;28;20035;-82
2024/02/18 02:11:06;;;;;;;0.10;0.10;;;5.80;99.90;;;;;;5085554;28;20032;-82
2024/02/18 02:13:32;;;;;;;0.10;0.10;;;5.70;99.90;;;;;;5087397;28;20024;-82
2024/02/18 02:15:58;;;;;;;0.10;0.10;;;5.60;99.90;;;;;;5081722;28;20024;-81
2024/02/18 02:18:24;;;;;;;0.10;0.10;;;5.50;99.90;;;;;;5088680;28;20032;-81
2024/02/18 02:20:50;;;;;;;0.20;0.20;;;5.50;99.90;;;;;;5088441;28;20564;-81
2024/02/18 02:23:16;;;;;;;0.10;0.10;;;5.50;99.90;;;;;;5081703;28;20054;-82
2024/02/18 02:25:42;;;;;;;0.20;0.20;;;5.50;99.90;;;;;;5087284;28;20550;-82
2024/02/18 02:28:22;;;;;;;18.65;7.18;;;5.40;99.90;;;;;;5085821;28;20040;-83
2024/02/18 02:30:48;;;;;;;0.10;0.10;;;5.40;99.90;;;;;;5084813;28;20019;-81
2024/02/18 02:33:15;;;;;;;0.10;0.10;;;5.50;99.90;;;;;;5079922;28;20479;-81
2024/02/18 02:35:40;;;;;;;0.30;0.30;;;5.40;99.90;;;;;;5087393;28;20012;-81
2024/02/18 02:38:06;;;;;;;6.32;4.20;;;5.50;99.90;;;;;;5080233;28;20032;-81
2024/02/18 02:40:32;;;;;;;0.08;0.08;;;5.50;99.90;;;;;;5085137;28;20024;-81
2024/02/18 02:42:57;;;;;;;0.10;0.10;;;5.50;99.90;;;;;;5088064;28;20028;-81
2024/02/18 02:45:23;;;;;;;0.10;0.10;;;5.50;99.90;;;;;;5081642;28;20044;-81
2024/02/18 02:47:51;;;;;;;0.20;0.20;;;5.60;99.90;;;;;;5079333;28;20032;-81
2024/02/18 02:50:17;;;;;;;0.95;0.95;;;5.60;99.90;;;;;;5082673;28;20020;-81
2024/02/18 02:52:43;;;;;;;0.10;0.10;;;5.60;99.90;;;;;;5086235;28;20032;-81
2024/02/18 02:55:09;;;;;;;1.45;1.35;;;5.60;99.90;;;;;;5085037;28;20032;-81
2024/02/18 02:57:34;;;;;;;0.52;0.52;;;5.50;99.90;;;;;;5081854;28;20036;-80
2024/02/18 03:00:08;;;;;;;0.13;0.13;;;5.50;99.90;;;;;;5083518;28;20511;-82
2024/02/18 03:02:37;;;;;;;0.40;0.40;;;5.50;99.90;;;;;;5086220;28;20032;-82
2024/02/18 03:05:04;;;;;;;0.10;0.10;;;5.50;99.90;;;;;;5085920;28;20838;-82
2024/02/18 03:07:30;;;;;;;;;;;5.50;99.90;;;;;;5077967;28;21145;-82
2024/02/18 03:09:55;;;;;;;0.10;0.10;;;5.50;99.90;;;;;;5080635;28;19938;-82
2024/02/18 03:12:21;;;;;;;0.10;0.10;;;5.50;99.90;;;;;;5083708;28;20035;-82
2024/02/18 03:14:47;;;;;;;0.10;0.10;;;5.40;99.90;;;;;;5082647;28;20035;-82
2024/02/18 03:17:12;;;;;;;0.10;0.10;;;5.50;99.90;;;;;;5085514;28;20519;-82
2024/02/18 03:19:38;;;;;;;0.10;0.10;;;5.40;99.90;;;;;;5082587;28;20020;-84
2024/02/18 03:22:04;;;;;;;0.10;0.10;;;5.50;99.90;;;;;;5079593;28;20059;-83
2024/02/18 03:24:31;;;;;;;0.10;0.10;;;5.40;99.90;;;;;;5083454;28;20497;-83
2024/02/18 03:26:57;;;;;;;0.10;0.10;;;5.30;99.90;;;;;;5090677;28;20138;-83
2024/02/18 03:29:22;;;;;;;0.10;0.10;;;5.30;99.90;;;;;;5086324;28;20087;-83
2024/02/18 03:31:55;;;;;;;0.10;0.10;;;5.30;99.90;;;;;;5080845;28;20088;-83
2024/02/18 03:34:21;;;;;;;0.10;0.10;;;5.30;99.90;;;;;;5084225;28;20032;-81
2024/02/18 03:36:47;;;;;;;0.10;0.10;;;5.30;99.90;;;;;;5077910;28;20035;-82
2024/02/18 03:39:12;;;;;;;0.10;0.10;;;5.30;99.90;;;;;;5085478;28;20059;-81
2024/02/18 03:41:38;;;;;;;0.10;0.10;;;5.20;99.90;;;;;;5080463;28;20037;-81
2024/02/18 03:44:04;;;;;;;0.10;0.10;;;5.30;99.90;;;;;;5083231;28;20411;-82
2024/02/18 03:46:29;;;;;;;0.10;0.10;;;5.20;99.90;;;;;;5081899;28;20185;-82
2024/02/18 03:48:55;;;;;;;0.10;0.10;;;5.20;99.90;;;;;;5082552;28;20827;-82
2024/02/18 03:51:21;;;;;;;0.10;0.10;;;5.20;99.90;;;;;;5088532;28;20558;-83
2024/02/18 03:53:46;;;;;;;0.10;0.10;;;5.20;99.90;;;;;;5083441;28;20024;-81
2024/02/18 03:56:12;;;;;;;0.10;0.10;;;5.20;99.90;;;;;;5086922;28;20058;-80
2024/02/18 03:58:37;;;;;;;0.10;0.10;;;5.20;99.90;;;;;;5089925;28;20028;-80
2024/02/18 04:01:03;;;;;;;0.10;0.10;;;5.20;99.90;;;;;;5080403;28;20041;-80
2024/02/18 04:03:29;;;;;;;0.10;0.10;;;5.20;99.90;;;;;;5086214;28;20558;-79
2024/02/18 04:05:55;;;;;;;0.10;0.10;;;5.10;99.90;;;;;;5083275;28;20037;-82
2024/02/18 04:08:20;;;;;;;0.10;0.10;;;5.10;99.90;;;;;;5085953;28;20028;-83
2024/02/18 04:10:46;;;;;;;0.10;0.10;;;5.20;99.90;;;;;;5082833;28;20111;-81
2024/02/18 04:13:11;;;;;;;0.10;0.10;;;5.10;99.90;;;;;;5079120;28;20075;-83
2024/02/18 04:15:37;;;;;;;0.10;0.10;;;5.00;99.90;;;;;;5081947;28;20028;-83
2024/02/18 04:18:03;;;;;;;0.10;0.10;;;4.90;99.90;;;;;;5084733;28;20088;-81
2024/02/18 04:20:29;;;;;;;0.10;0.10;;;4.90;99.90;;;;;;5088798;28;20032;-82
2024/02/18 04:22:54;;;;;;;1.08;0.68;;;4.90;99.90;;;;;;5086893;28;20055;-81
2024/02/18 04:25:21;;;;;;;0.10;0.10;;;4.90;99.90;;;;;;5080327;28;20128;-82
2024/02/18 04:27:46;;;;;;;0.32;0.32;;;4.80;99.90;;;;;;5080014;28;20028;-82
2024/02/18 04:30:13;;;;;;;0.10;0.10;;;4.80;99.90;;;;;;5079183;28;20101;-82
2024/02/18 04:32:38;;;;;;;0.10;0.10;;;4.80;99.90;;;;;;5086126;28;20024;-82
2024/02/18 04:35:04;;;;;;;0.10;0.10;;;4.70;99.90;;;;;;5086109;28;20039;-81
2024/02/18 04:37:30;;;;;;;0.20;0.20;;;4.60;99.90;;;;;;5075404;28;20111;-82
2024/02/18 04:39:57;;;;;;;0.10;0.10;;;4.50;99.90;;;;;;5079230;28;20123;-81
2024/02/18 04:42:22;;;;;;;0.10;0.10;;;4.50;99.90;;;;;;5084531;28;20056;-80
2024/02/18 04:44:48;;;;;;;0.10;0.10;;;4.40;99.90;;;;;;5085691;28;20063;-81
2024/02/18 04:47:13;;;;;;;0.10;0.10;;;4.50;99.90;;;;;;5088462;28;20028;-81
2024/02/18 04:49:39;;;;;;;0.00;0.00;;;4.50;99.90;;;;;;5080629;28;20077;-81
2024/02/18 04:52:05;;;;;;;0.10;0.10;;;4.40;99.90;;;;;;5084955;28;20085;-83
2024/02/18 04:54:33;;;;;;;0.10;0.10;;;4.40;99.90;;;;;;5085623;28;20032;-82
2024/02/18 04:57:00;;;;;;;0.10;0.10;;;4.30;99.90;;;;;;5093095;28;20056;-82
2024/02/18 04:59:25;;;;;;;0.10;0.10;;;4.30;99.90;;;;;;5082764;28;20177;-84
2024/02/18 05:01:51;;;;;;;0.20;0.20;;;4.30;99.90;;;;;;5084826;28;20059;-83
2024/02/18 05:04:17;;;;;;;0.10;0.10;;;4.40;99.90;;;;;;5087867;28;20411;-82
2024/02/18 05:06:49;;;;;;;0.10;0.10;;;4.30;99.90;;;;;;5091081;28;20496;-83
2024/02/18 05:09:15;;;;;;;0.20;0.20;;;4.30;99.90;;;;;;5089280;28;20063;-81
2024/02/18 05:11:41;;;;;;;0.10;0.10;;;4.20;99.90;;;;;;5085078;28;20530;-81
2024/02/18 05:14:07;;;;;;;0.10;0.10;;;4.20;99.90;;;;;;5078506;28;20483;-81
2024/02/18 05:16:32;;;;;;;0.10;0.10;;;4.20;99.90;;;;;;5090209;28;20478;-81
2024/02/18 05:18:58;;;;;;;0.30;0.30;;;4.10;99.90;;;;;;5088265;28;20036;-81
2024/02/18 05:21:24;;;;;;;0.10;0.10;;;4.20;99.90;;;;;;5088148;28;20066;-81
2024/02/18 05:23:53;;;;;;;0.10;0.10;;;4.20;99.90;;;;;;5089742;28;20024;-81
2024/02/18 05:26:18;;;;;;;0.10;0.10;;;4.20;99.90;;;;;;5089471;28;20031;-82
2024/02/18 05:28:45;;;;;;;0.10;0.10;;;4.20;99.90;;;;;;5087824;28;20037;-82
2024/02/18 05:31:22;;;;;;;0.10;0.10;;;4.10;99.90;;;;;;5090282;28;20028;-82
2024/02/18 05:33:49;;;;;;;0.10;0.10;;;4.20;99.90;;;;;;5091581;28;20057;-83
2024/02/18 05:36:15;;;;;;;0.10;0.10;;;4.20;99.90;;;;;;5088765;28;20062;-82
2024/02/18 05:38:41;;;;;;;0.10;0.10;;;4.20;99.90;;;;;;5085598;28;20094;-80
2024/02/18 05:41:06;;;;;;;0.10;0.10;;;4.20;99.90;;;;;;5084215;28;20119;-81
2024/02/18 05:43:32;;;;;;;0.10;0.10;;;4.20;99.90;;;;;;5083642;28;20075;-80
2024/02/18 05:45:58;;;;;;;0.10;0.10;;;4.20;99.90;;;;;;5091104;28;20028;-80
2024/02/18 05:48:23;;;;;;;0.10;0.10;;;4.00;99.90;;;;;;5087359;28;20035;-81
2024/02/18 05:50:49;;;;;;;0.10;0.10;;;4.00;99.90;;;;;;5092632;28;20028;-79
2024/02/18 05:53:15;;;;;;;0.10;0.10;;;4.10;99.90;;;;;;5086488;28;20039;-82
2024/02/18 05:55:40;;;;;;;0.10;0.10;;;4.10;99.90;;;;;;5088813;28;20050;-81
2024/02/18 05:58:06;;;;;;;0.45;0.45;;;4.00;99.90;;;;;;5084331;28;20124;-80
2024/02/18 06:00:32;;;;;;;0.10;0.10;;;4.00;99.90;;;;;;5086953;28;20506;-80
2024/02/18 06:02:58;;;;;;;0.10;0.10;;;3.90;99.90;;;;;;5085569;28;20644;-82
2024/02/18 06:05:23;;;;;;;2.60;2.47;;;3.90;99.90;;;;;;5084339;28;20039;-80
2024/02/18 06:07:49;;;;;;;0.10;0.10;;;3.90;99.90;;;;;;5086550;28;20563;-79
2024/02/18 06:10:15;;;;;;;0.10;0.10;;;3.90;99.90;;;;;;5082798;28;20028;-81
2024/02/18 06:12:41;;;;;;;0.10;0.10;;;3.80;99.90;;;;;;5082482;28;20067;-82
2024/02/18 06:15:07;;;;;;;0.10;0.10;;;3.80;99.90;;;;;;5085731;28;20027;-83
2024/02/18 06:17:33;;;;;;;0.10;0.10;;;3.80;99.90;;;;;;5082150;28;20040;-82
2024/02/18 06:19:59;;;;;;;0.10;0.10;;;3.80;99.90;;;;;;5078370;28;20042;-80
2024/02/18 06:22:24;;;;;;;0.10;0.10;;;3.80;99.90;;;;;;5081863;28;20055;-81
2024/02/18 06:24:50;;;;;;;0.10;0.10;;;3.90;99.90;;;;;;5087758;28;20566;-84
2024/02/18 06:27:16;;;;;;;0.10;0.10;;;4.00;99.90;;;;;;5085042;28;20526;-80
2024/02/18 06:29:41;;;;;;;0.10;0.10;;;4.10;99.90;;;;;;5084112;28;20712;-81
2024/02/18 06:32:07;;;;;;;0.10;0.10;;;4.10;99.90;;;;;;5088757;28;20503;-80
2024/02/18 06:34:33;;;;;;;0.10;0.10;;;4.10;99.90;;;;;;5084557;28;20028;-78
2024/02/18 06:36:58;;;;;;;0.10;0.10;;;4.10;99.90;;;;;;5082967;28;20143;-80
2024/02/18 06:39:24;;;;;;;0.10;0.10;;;4.10;99.90;;;;;;5075373;28;20036;-79
2024/02/18 06:41:50;;;;;;;0.10;0.10;;;4.00;99.90;;;;;;5083641;28;20380;-79
2024/02/18 06:44:16;;;;;;;0.10;0.10;;;4.10;99.90;;;;;;5081183;28;20028;-82
2024/02/18 06:46:42;;;;;;;0.10;0.10;;;4.20;99.90;;;;;;5075726;28;20020;-82
2024/02/18 06:49:08;;;;;;;0.20;0.20;;;4.30;99.90;;;;;;5077816;28;20597;-81
2024/02/18 06:51:33;;;;;;;0.10;0.10;;;4.30;99.90;;;;;;5081313;28;20064;-79
2024/02/18 06:53:59;;;;;;;0.15;0.15;;;4.30;99.90;;;;;;5083104;28;20047;-80
2024/02/18 06:56:26;;;;;;;0.28;0.28;;;4.20;99.90;;;;;;5086472;28;20040;-81
2024/02/18 06:58:52;;;;;;;;;;;4.40;99.90;;;;;;5076026;28;20017;-80
2024/02/18 07:01:21;;;;;;;0.75;0.38;;;4.40;99.90;;;;;;5082933;28;19916;-79
2024/02/18 07:03:46;;;;;;;0.10;0.10;;;4.50;99.90;;;;;;5083868;28;20032;-81
2024/02/18 07:06:13;;;;;;;0.10;0.10;;;4.70;99.90;;;;;;5086270;28;20020;-81
2024/02/18 07:08:39;;;;;;;0.10;0.10;;;4.80;99.90;;;;;;5083546;28;20058;-84
2024/02/18 07:11:05;;;;;;;0.10;0.10;;;4.90;99.90;;;;;;5076534;28;20491;-80
2024/02/18 07:13:30;;;;;;;0.10;0.10;;;4.80;99.90;;;;;;5085768;28;20032;-80
2024/02/18 07:15:56;;;;;;;0.10;0.10;;;4.90;99.90;;;;;;5076946;28;20020;-82
2024/02/18 07:18:22;;;;;;;0.10;0.10;;;4.90;99.90;;;;;;5082169;28;20099;-82
2024/02/18 07:20:47;;;;;;;0.10;0.10;;;4.90;99.90;;;;;;5078461;28;20702;-81
2024/02/18 07:23:13;;;;;;;0.20;0.20;;;4.90;99.90;;;;;;5085438;28;20030;-81
2024/02/18 07:25:44;;;;;;;0.10;0.10;;;5.00;99.90;;;;;;5074909;28;20036;-81
2024/02/18 07:28:10;;;;;;;0.10;0.10;;;5.10;99.90;;;;;;5070721;28;20016;-81
2024/02/18 07:30:35;;;;;;;0.10;0.10;;;5.10;99.90;;;;;;5080696;28;20028;-81
2024/02/18 07:33:01;;;;;;;0.10;0.10;;;5.30;99.90;;;;;;5082730;28;20123;-81
2024/02/18 07:35:27;;;;;;;0.68;0.68;;;5.50;99.90;;;;;;5081718;28;20110;-82
2024/02/18 07:37:53;;;;;;;0.10;0.10;;;5.50;99.90;;;;;;5077702;28;20028;-83
2024/02/18 07:40:19;;;;;;;0.10;0.10;;;5.60;99.90;;;;;;5081763;28;20021;-80
2024/02/18 07:42:45;;;;;;;0.10;0.10;;;5.70;99.90;;;;;;5072564;28;20105;-81
2024/02/18 07:45:11;;;;;;;0.10;0.10;;;5.80;99.90;;;;;;5075092;28;20036;-81
2024/02/18 07:47:37;;;;;;;0.10;0.10;;;5.90;99.90;;;;;;5083096;28;20028;-79
2024/02/18 07:50:03;;;;;;;0.10;0.10;;;6.10;99.90;;;;;;5085228;28;20411;-79
2024/02/18 07:52:29;;;;;;;0.10;0.10;;;6.20;99.90;;;;;;5082249;28;20131;-80
2024/02/18 07:54:54;;;;;;;0.10;0.10;;;6.00;99.90;;;;;;5074582;28;20025;-80
2024/02/18 07:57:20;;;;;;;0.10;0.10;;;5.90;99.90;;;;;;5081439;28;20055;-83
2024/02/18 07:59:47;;;;;;;0.10;0.10;;;5.90;99.90;;;;;;5079690;28;20545;-82
2024/02/18 08:02:12;;;;;;;0.85;0.85;;;6.20;99.90;;;;;;5082259;28;20067;-80
2024/02/18 08:04:38;;;;;;;0.10;0.10;;;6.20;99.90;;;;;;5078544;28;20109;-80
2024/02/18 08:07:04;;;;;;;0.10;0.10;;;6.30;99.90;;;;;;5074982;28;20008;-80
2024/02/18 08:09:29;;;;;;;0.13;0.13;;;6.20;99.90;;;;;;5073879;28;20040;-79
2024/02/18 08:11:55;;;;;;;0.10;0.10;;;6.10;99.90;;;;;;5080954;28;20396;-80
2024/02/18 08:14:20;;;;;;;0.10;0.10;;;6.30;99.90;;;;;;5073190;28;20396;-82
2024/02/18 08:16:46;;;;;;;0.10;0.10;;;6.40;99.90;;;;;;5079538;28;20051;-83
2024/02/18 08:19:12;;;;;;;0.20;0.20;;;6.40;99.90;;;;;;5075605;28;20509;-85
2024/02/18 08:21:37;;;;;;;0.38;0.38;;;6.40;99.90;;;;;;5078393;28;21424;-81
2024/02/18 08:24:03;;;;;;;0.17;0.17;;;6.40;99.90;;;;;;5080384;28;20537;-82
2024/02/18 08:26:32;;;;;;;0.10;0.10;;;6.60;99.90;;;;;;5084039;28;20028;-82
2024/02/18 08:28:58;;;;;;;1.65;1.55;;;6.70;99.90;;;;;;5085470;28;20814;-82
2024/02/18 08:31:23;;;;;;;0.10;0.10;;;7.00;99.90;;;;;;5085683;28;20028;-81
2024/02/18 08:33:49;;;;;;;0.10;0.10;;;7.10;99.90;;;;;;5084160;28;20036;-81
2024/02/18 08:36:15;;;;;;;0.10;0.10;;;7.50;99.90;;;;;;5080194;28;20414;-80
2024/02/18 08:38:42;;;;;;;0.10;0.10;;;7.60;99.90;;;;;;5078348;28;20020;-82
2024/02/18 08:41:08;;;;;;;0.10;0.10;;;7.70;99.90;;;;;;5076442;28;20036;-82
2024/02/18 08:43:42;;;;;;;0.10;0.10;;;7.90;99.90;;;;;;5081406;28;20024;-84
2024/02/18 08:46:09;;;;;;;0.10;0.10;;;7.90;99.90;;;;;;5081086;28;20127;-83
2024/02/18 08:48:35;;;;;;;;;;;8.10;99.90;;;;;;5079142;28;20031;-81
2024/02/18 08:51:01;;;;;;;;;;;8.10;99.90;;;;;;5081610;28;20002;-83
2024/02/18 08:53:26;;;;;;;0.10;0.10;;;7.70;99.90;;;;;;5077786;28;20007;-82
2024/02/18 08:55:53;;;;;;;0.55;0.50;;;7.70;99.90;;;;;;5080349;28;20124;-82
2024/02/18 08:58:18;;;;;;;0.10;0.10;;;7.70;99.90;;;;;;5077863;28;20032;-83
2024/02/18 09:00:45;;;;;;;0.10;0.10;;;7.40;99.90;;;;;;5079428;28;20296;-82
2024/02/18 09:03:11;;;;;;;0.10;0.10;;;7.30;99.90;;;;;;5080744;28;20024;-81
2024/02/18 09:05:38;;;;;;;0.10;0.10;;;7.20;99.90;;;;;;5082468;28;20039;-82
2024/02/18 09:08:04;;;;;;;0.10;0.10;;;7.10;99.90;;;;;;5082056;28;20038;-84
2024/02/18 09:10:30;;;;;;;0.30;0.30;;;7.10;99.90;;;;;;5079499;28;20103;-83
2024/02/18 09:13:00;;;;;;;0.10;0.10;;;7.10;99.90;;;;;;5081577;28;20027;-81
2024/02/18 09:15:26;;;;;;;0.08;0.08;;;7.10;99.90;;;;;;5085017;28;20153;-81
2024/02/18 09:17:52;;;;;;;0.10;0.10;;;7.20;99.90;;;;;;5083488;28;20593;-80
2024/02/18 09:20:18;;;;;;;0.10;0.10;;;7.40;99.90;;;;;;5086920;28;20128;-80
2024/02/18 09:22:43;;;;;;;0.08;0.08;;;7.60;99.90;;;;;;5087041;28;21047;-81
2024/02/18 09:25:09;;;;;;;0.27;0.27;;;7.80;99.90;;;;;;5080309;28;20027;-84
2024/02/18 09:27:35;;;;;;;0.10;0.10;;;7.80;99.90;;;;;;5080480;28;20419;-78
2024/02/18 09:30:01;;;;;;;0.10;0.10;;;7.80;99.90;;;;;;5087856;28;20066;-81
2024/02/18 09:32:26;;;;;;;0.10;0.10;;;7.90;99.90;;;;;;5078747;28;20060;-83
2024/02/18 09:34:52;;;;;;;0.10;0.10;;;8.00;99.90;;;;;;5086216;28;20024;-82
2024/02/18 09:37:18;;;;;;;0.10;0.10;;;8.20;99.90;;;;;;5074981;28;20092;-79
2024/02/18 09:39:43;;;;;;;0.15;0.15;;;8.40;99.90;;;;;;5084086;28;20035;-81
2024/02/18 09:42:10;;;;;;;0.10;0.10;;;8.60;99.90;;;;;;5086626;28;20518;-79
2024/02/18 09:44:39;;;;;;;0.10;0.10;;;8.90;99.90;;;;;;5081893;28;20021;-79
2024/02/18 09:47:06;;;;;;;0.10;0.10;;;9.00;99.90;;;;;;5081375;28;20047;-83
2024/02/18 09:49:34;;;;;;;0.10;0.10;;;8.90;99.90;;;;;;5082020;28;20020;-82
2024/02/18 09:51:59;;;;;;;0.10;0.10;;;8.80;99.90;;;;;;5081914;28;20036;-82
2024/02/18 09:54:27;;;;;;;0.10;0.10;;;8.80;99.90;;;;;;5084983;28;20033;-82
2024/02/18 09:56:54;;;;;;;0.45;0.45;;;8.50;99.90;;;;;;5077797;28;20063;-81
2024/02/18 09:59:19;;;;;;;0.30;0.30;;;8.40;99.90;;;;;;5085650;28;20028;-81
2024/02/18 10:01:50;;;;;;;0.10;0.10;;;8.60;99.90;;;;;;5091770;28;20044;-80
2024/02/18 10:04:16;;;;;;;0.47;0.47;;;8.90;99.90;;;;;;5082461;28;20100;-79
2024/02/18 10:06:43;;;;;;;0.13;0.13;;;8.90;99.90;;;;;;5079435;28;20044;-80
2024/02/18 10:09:09;;;;;;;0.10;0.10;;;9.00;99.90;;;;;;5091371;28;20026;-81
2024/02/18 10:11:36;;;;;;;0.10;0.10;;;8.90;99.90;;;;;;5082521;28;20614;-84
2024/02/18 10:14:03;;;;;;;0.10;0.10;;;9.10;99.90;;;;;;5088586;28;20515;-83
2024/02/18 10:16:29;;;;;;;0.38;0.35;;;9.30;99.90;;;;;;5079707;28;20817;-82
2024/02/18 10:18:55;;;;;;;0.00;0.00;;;9.10;99.90;;;;;;5088320;28;20071;-80
2024/02/18 10:21:21;;;;;;;0.00;0.00;;;9.30;99.90;;;;;;5083851;28;20574;-83
2024/02/18 10:23:46;;;;;;;0.30;0.30;;;9.30;99.90;;;;;;5076955;28;20043;-83
2024/02/18 10:26:12;;;;;;;0.10;0.10;;;9.40;99.90;;;;;;5084837;28;20428;-82
2024/02/18 10:28:39;;;;;;;0.10;0.10;;;9.50;99.90;;;;;;5080563;28;20075;-82
2024/02/18 10:31:07;;;;;;;0.10;0.10;;;9.20;99.90;;;;;;5078800;28;20139;-79
2024/02/18 10:33:38;;;;;;;0.10;0.10;;;9.40;99.90;;;;;;5083751;28;20123;-79
2024/02/18 10:36:11;;;;;;;0.00;0.00;;;9.50;99.90;;;;;;5075756;28;20032;-80
2024/02/18 10:38:47;;;;;;;0.00;0.00;;;9.50;99.90;;;;;;5077458;28;20034;-79
2024/02/18 10:41:16;;;;;;;0.00;0.00;;;9.60;99.90;;;;;;5085407;28;20109;-79
2024/02/18 10:43:57;;;;;;;0.10;0.10;;;9.80;99.90;;;;;;5093111;28;20016;-78
2024/02/18 10:46:24;;;;;;;0.30;0.30;;;9.80;99.90;;;;;;5081445;28;20150;-80
2024/02/18 10:48:52;;;;;;;1.85;0.88;;;9.90;99.90;;;;;;5077542;28;20093;-80
2024/02/18 10:51:39;;;;;;;0.10;0.10;;;9.70;99.90;;;;;;5076560;28;20024;-79
2024/02/18 10:54:29;;;;;;;0.15;0.15;;;10.10;99.90;;;;;;5072136;28;20034;-80
2024/02/18 10:56:56;;;;;;;0.10;0.10;;;10.10;99.90;;;;;;5080203;28;20059;-81
2024/02/18 10:59:41;;;;;;;0.00;0.00;;;10.00;99.90;;;;;;5088252;28;20024;-80
2024/02/18 11:02:23;;;;;;;0.10;0.10;;;10.20;99.90;;;;;;5076527;28;20059;-83
2024/02/18 11:04:49;;;;;;;0.10;0.10;;;10.10;99.90;;;;;;5087650;28;20024;-81
2024/02/18 11:07:16;;;;;;;0.10;0.10;;;10.30;99.90;;;;;;5087298;28;20016;-79
2024/02/18 11:09:42;;;;;;;0.00;0.00;;;10.40;99.10;;;;;;5086016;28;20110;-80
2024/02/18 11:12:09;;;;;;;0.10;0.10;;;10.40;98.80;;;;;;5085661;28;20116;-80
2024/02/18 11:14:37;;;;;;;0.10;0.10;;;10.40;99.20;;;;;;5083679;28;20274;-80
2024/02/18 11:17:03;;;;;;;0.00;0.00;;;10.50;99.20;;;;;;5088996;28;20066;-82
2024/02/18 11:19:31;;;;;;;0.10;0.10;;;10.60;98.80;;;;;;5081786;28;20184;-81
2024/02/18 11:21:59;;;;;;;0.10;0.10;;;10.80;98.70;;;;;;5080158;28;20029;-79
2024/02/18 11:24:25;;;;;;;0.15;0.15;;;10.80;98.20;;;;;;5083642;28;20162;-90
2024/02/18 11:26:54;;;;;;;0.00;0.00;;;11.10;97.90;;;;;;5078028;28;20099;-81
2024/02/18 11:29:19;;;;;;;0.28;0.28;;;10.90;97.30;;;;;;5087854;28;21391;-80
2024/02/18 11:31:46;;;;;;;0.10;0.10;;;11.10;97.30;;;;;;5084158;28;20162;-87
2024/02/18 11:34:12;;;;;;;0.25;0.25;;;10.70;97.40;;;;;;5085648;28;20035;-82
2024/02/18 11:36:37;;;;;;;0.00;0.00;;;10.60;97.80;;;;;;5082406;28;20036;-85
2024/02/18 11:39:06;;;;;;;0.00;0.00;;;11.00;97.10;;;;;;5080665;28;20112;-84
2024/02/18 11:41:34;;;;;;;0.20;0.20;;;11.70;96.00;;;;;;5075138;28;20016;-82
2024/02/18 11:44:06;;;;;;;0.10;0.10;;;12.30;94.70;;;;;;5087335;28;20050;-84
2024/02/18 11:46:32;;;;;;;0.10;0.10;;;11.80;93.50;;;;;;5081553;28;20131;-81
2024/02/18 11:48:58;;;;;;;0.10;0.10;;;11.70;93.80;;;;;;5082706;28;20265;-81
2024/02/18 11:51:28;;;;;;;0.20;0.20;;;11.90;93.10;;;;;;5083025;28;20035;-81
2024/02/18 11:53:54;;;;;;;0.38;0.38;;;12.20;92.70;;;;;;5074094;28;20039;-82
2024/02/18 11:56:20;;;;;;;;;;;12.00;92.10;;;;;;5080009;28;20048;-81
2024/02/18 11:58:47;;;;;;;0.63;0.43;;;12.00;92.90;;;;;;5083984;28;19926;-80
2024/02/18 12:01:15;;;;;;;0.03;0.03;;;12.20;94.20;;;;;;5079522;28;20040;-81
2024/02/18 12:03:45;;;;;;;0.10;0.10;;;12.30;95.40;;;;;;5081344;28;20028;-81
2024/02/18 12:06:10;;;;;;;0.20;0.20;;;12.10;95.90;;;;;;5084975;28;20028;-80
2024/02/18 12:08:37;;;;;;;0.00;0.00;;;12.10;96.70;;;;;;5078574;28;20198;-80
2024/02/18 12:11:03;;;;;;;0.10;0.10;;;12.10;97.40;;;;;;5081701;28;20583;-81
2024/02/18 12:13:30;;;;;;;0.13;0.13;;;12.20;98.20;;;;;;5085322;28;20087;-82
2024/02/18 12:16:01;;;;;;;0.10;0.10;;;12.50;98.50;;;;;;5082279;28;20593;-80
2024/02/18 12:18:27;;;;;;;0.20;0.20;;;12.40;97.50;;;;;;5081337;28;20498;-81
2024/02/18 12:20:54;;;;;;;0.10;0.10;;;12.00;97.70;;;;;;5079372;28;20032;-83
2024/02/18 12:23:24;;;;;;;0.03;0.03;;;12.30;98.10;;;;;;5081766;28;20032;-83
2024/02/18 12:25:51;;;;;;;0.00;0.00;;;12.10;98.40;;;;;;5085640;28;20028;-83
2024/02/18 12:28:17;;;;;;;;;;;12.20;97.80;;;;;;5081580;28;20059;-80
2024/02/18 12:30:45;;;;;;;0.10;0.10;;;12.20;97.30;;;;;;5077505;28;19940;-82
2024/02/18 12:33:12;;;;;;;0.05;0.05;;;12.30;97.70;;;;;;5080892;28;20456;-81
2024/02/18 12:35:38;;;;;;;0.00;0.00;;;12.10;97.20;;;;;;5083069;28;20513;-81
2024/02/18 12:38:05;;;;;;;0.10;0.10;;;11.80;97.80;;;;;;5084561;28;20143;-80
2024/02/18 12:40:34;;;;;;;0.10;0.10;;;11.60;98.30;;;;;;5083749;28;20081;-83
2024/02/18 12:43:03;;;;;;;0.13;0.13;;;11.80;98.50;;;;;;5073805;28;20067;-81
2024/02/18 12:45:29;;;;;;;0.00;0.00;;;11.60;98.90;;;;;;5078399;28;20028;-80
2024/02/18 12:47:56;;;;;;;1.10;1.10;;;11.80;98.80;;;;;;5081943;28;20055;-86
2024/02/18 12:50:28;;;;;;;0.15;0.15;;;11.80;98.90;;;;;;5081333;28;20714;-79
2024/02/18 12:52:54;;;;;;;0.10;0.10;;;11.80;98.60;;;;;;5076190;28;20090;-81
2024/02/18 12:55:21;;;;;;;0.00;0.00;;;11.80;98.30;;;;;;5079874;28;20028;-82